createdAt,value
2022-11-17T00:02:22.000Z,74.89
2022-11-17T00:07:24.308Z,74.75
2022-11-17T00:12:45.147Z,74.88
2022-11-17T00:17:49.010Z,74.91
2022-11-17T00:22:51.145Z,74.96
2022-11-17T00:27:53.343Z,75.02
2022-11-17T00:33:14.162Z,75.09
2022-11-17T00:38:16.360Z,75.30
2022-11-17T00:43:18.493Z,75.22
2022-11-17T00:48:20.651Z,75.49
2022-11-17T00:53:22.783Z,75.36
2022-11-17T00:58:24.822Z,75.45
2022-11-17T01:03:26.857Z,75.46
2022-11-17T01:08:28.865Z,75.56
2022-11-17T01:13:30.961Z,75.34
2022-11-17T01:18:33.247Z,75.38
2022-11-17T01:23:36.546Z,75.53
2022-11-17T01:28:39.408Z,75.54
2022-11-17T01:33:41.905Z,75.56
2022-11-17T01:38:44.261Z,75.80
2022-11-17T01:43:55.157Z,75.71
2022-11-17T01:49:25.064Z,76.54
2022-11-17T01:54:28.472Z,75.82
2022-11-17T01:59:37.047Z,75.94
2022-11-17T02:04:47.581Z,76.04
2022-11-17T02:09:49.872Z,75.79
2022-11-17T02:14:52.289Z,75.91
2022-11-17T02:20:17.452Z,76.08
2022-11-17T02:25:36.760Z,76.08
2022-11-17T02:30:47.623Z,76.03
2022-11-17T02:36:03.592Z,76.12
2022-11-17T02:41:37.725Z,76.11
2022-11-17T02:46:47.892Z,76.00
2022-11-17T02:51:52.171Z,75.66
2022-11-17T02:56:54.172Z,75.93
2022-11-17T03:01:59.539Z,75.85
2022-11-17T03:07:35.685Z,76.39
2022-11-17T03:12:46.918Z,76.46
2022-11-17T03:18:23.266Z,76.46
2022-11-17T03:23:33.432Z,76.24
2022-11-17T03:28:36.716Z,76.20
2022-11-17T03:33:39.608Z,76.13
2022-11-17T03:38:46.930Z,76.14
2022-11-17T03:43:52.010Z,76.04
2022-11-17T03:48:55.933Z,76.16
2022-11-17T03:53:58.061Z,76.25
2022-11-17T03:59:08.666Z,76.44
2022-11-17T04:04:18.622Z,76.44
2022-11-17T04:09:24.378Z,76.29
2022-11-17T04:14:45.165Z,76.61
2022-11-17T04:19:48.409Z,76.21
2022-11-17T04:24:50.511Z,76.31
2022-11-17T04:29:52.633Z,76.27
2022-11-17T04:34:54.696Z,76.25
2022-11-17T04:39:56.727Z,76.35
2022-11-17T04:44:58.806Z,76.25
2022-11-17T04:50:01.300Z,76.36
2022-11-17T04:55:05.319Z,76.34
2022-11-17T05:00:08.151Z,76.10
2022-11-17T05:05:10.209Z,76.09
2022-11-17T05:10:14.076Z,76.20
2022-11-17T05:15:36.102Z,76.40
2022-11-17T05:20:38.121Z,76.21
2022-11-17T05:25:40.228Z,76.27
2022-11-17T05:30:42.939Z,76.47
2022-11-17T05:35:45.039Z,76.29
2022-11-17T05:40:47.092Z,76.40
2022-11-17T05:45:49.269Z,76.47
2022-11-17T05:50:57.699Z,76.79
2022-11-17T05:56:09.423Z,76.73
2022-11-17T06:01:13.902Z,76.60
2022-11-17T06:06:34.347Z,76.88
2022-11-17T06:11:36.435Z,76.48
2022-11-17T06:16:42.073Z,76.55
2022-11-17T06:22:10.708Z,76.60
2022-11-17T06:27:06.225Z,76.56
2022-11-17T06:32:08.226Z,76.69
2022-11-17T06:37:11.574Z,76.76
2022-11-17T06:42:13.604Z,76.57
2022-11-17T06:47:15.625Z,76.60
2022-11-17T06:52:17.722Z,76.51
2022-11-17T06:57:19.741Z,76.75
2022-11-17T07:02:21.710Z,76.53
2022-11-17T07:07:36.677Z,76.72
2022-11-17T07:12:38.771Z,76.54
2022-11-17T07:17:40.782Z,76.72
2022-11-17T07:22:43.068Z,76.60
2022-11-17T07:27:45.105Z,76.49
2022-11-17T07:32:53.390Z,76.74
2022-11-17T07:37:58.497Z,76.57
2022-11-17T07:43:01.293Z,76.69
2022-11-17T07:48:06.470Z,76.52
2022-11-17T07:53:08.536Z,76.47
2022-11-17T07:58:10.528Z,76.49
2022-11-17T08:03:12.710Z,76.52
2022-11-17T08:08:14.783Z,76.42
2022-11-17T08:13:16.961Z,76.70
2022-11-17T08:18:19.156Z,76.71
2022-11-17T08:23:21.401Z,76.67
2022-11-17T08:28:23.625Z,76.55
2022-11-17T08:33:25.767Z,76.33
2022-11-17T08:38:31.136Z,76.36
2022-11-17T08:43:34.084Z,76.32
2022-11-17T08:48:36.600Z,76.22
2022-11-17T08:53:38.975Z,76.06
2022-11-17T08:58:42.946Z,76.17
2022-11-17T09:03:46.574Z,75.95
2022-11-17T09:08:49.127Z,75.96
2022-11-17T09:13:51.436Z,76.01
2022-11-17T09:18:58.441Z,76.07
2022-11-17T09:24:00.572Z,75.69
2022-11-17T09:29:04.262Z,75.48
2022-11-17T09:34:06.712Z,75.10
2022-11-17T09:39:09.200Z,75.04
2022-11-17T09:44:11.327Z,74.94
2022-11-17T09:49:44.060Z,74.90
2022-11-17T09:54:56.534Z,74.48
2022-11-17T10:00:06.055Z,74.18
2022-11-17T10:05:25.486Z,73.95
2022-11-17T10:10:45.291Z,73.81
2022-11-17T10:15:49.721Z,73.77
2022-11-17T10:20:51.861Z,73.34
2022-11-17T10:25:58.595Z,73.05
2022-11-17T10:31:15.737Z,72.94
2022-11-17T10:36:24.536Z,72.75
2022-11-17T10:41:40.481Z,72.65
2022-11-17T10:47:04.379Z,72.07
2022-11-17T10:52:15.693Z,71.88
2022-11-17T10:57:23.360Z,72.10
2022-11-17T11:02:33.881Z,71.42
2022-11-17T11:07:36.518Z,71.68
2022-11-17T11:13:08.017Z,71.06
2022-11-17T11:18:17.647Z,71.20
2022-11-17T11:23:44.099Z,71.25
2022-11-17T11:29:17.493Z,71.01
2022-11-17T11:34:49.720Z,71.05
2022-11-17T11:40:15.720Z,70.80
2022-11-17T11:45:27.034Z,71.13
2022-11-17T11:50:38.991Z,70.98
2022-11-17T11:55:47.339Z,70.98
2022-11-17T12:00:52.702Z,71.13
2022-11-17T12:06:40.843Z,70.49
2022-11-17T12:12:01.201Z,70.95
2022-11-17T12:17:26.455Z,70.53
2022-11-17T12:22:34.486Z,70.84
2022-11-17T12:27:36.668Z,70.80
2022-11-17T12:32:45.028Z,70.87
2022-11-17T12:37:47.105Z,70.71
2022-11-17T12:43:17.395Z,70.20
2022-11-17T12:48:34.524Z,70.57
2022-11-17T12:54:00.076Z,70.56
2022-11-17T12:59:15.084Z,70.17
2022-11-17T13:04:21.130Z,70.00
2022-11-17T13:09:26.265Z,69.72
2022-11-17T13:14:28.481Z,69.72
2022-11-17T13:19:38.046Z,69.77
2022-11-17T13:24:42.793Z,70.08
2022-11-17T13:29:44.856Z,70.12
2022-11-17T13:35:06.215Z,70.28
2022-11-17T13:40:22.396Z,70.04
2022-11-17T13:45:24.783Z,70.23
2022-11-17T13:50:27.006Z,70.34
2022-11-17T13:55:29.801Z,70.19
2022-11-17T14:00:32.777Z,70.21
2022-11-17T14:05:35.001Z,69.68
2022-11-17T14:10:38.869Z,69.50
2022-11-17T14:15:42.667Z,69.48
2022-11-17T14:20:44.894Z,69.43
2022-11-17T14:25:51.666Z,69.55
2022-11-17T14:30:55.610Z,69.34
2022-11-17T14:35:59.729Z,68.93
2022-11-17T14:41:01.931Z,68.92
2022-11-17T14:46:04.187Z,69.17
2022-11-17T14:51:06.519Z,68.96
2022-11-17T14:56:09.647Z,69.03
2022-11-17T15:01:16.468Z,69.03
2022-11-17T15:06:20.325Z,69.02
2022-11-17T15:11:23.846Z,68.71
2022-11-17T15:16:26.088Z,68.66
2022-11-17T15:21:28.277Z,68.45
2022-11-17T15:26:30.483Z,68.36
2022-11-17T15:31:32.629Z,68.05
2022-11-17T15:36:34.785Z,67.96
2022-11-17T15:41:37.211Z,67.88
2022-11-17T15:46:44.316Z,67.71
2022-11-17T15:51:49.377Z,67.69
2022-11-17T15:56:52.319Z,67.56
2022-11-17T16:01:54.545Z,67.76
2022-11-17T16:06:56.760Z,67.60
2022-11-17T16:11:59.193Z,67.55
2022-11-17T16:17:01.591Z,67.73
2022-11-17T16:22:03.836Z,67.81
2022-11-17T16:27:06.133Z,67.98
2022-11-17T16:32:08.689Z,68.03
2022-11-17T16:37:10.881Z,68.38
2022-11-17T16:42:13.042Z,68.33
2022-11-17T16:47:15.247Z,68.52
2022-11-17T16:52:17.428Z,68.47
2022-11-17T16:57:19.620Z,68.77
2022-11-17T17:02:21.940Z,68.83
2022-11-17T17:07:24.286Z,69.22
2022-11-17T17:12:27.643Z,69.26
2022-11-17T17:17:29.831Z,69.27
2022-11-17T17:22:32.015Z,69.62
2022-11-17T17:27:34.277Z,69.74
2022-11-17T17:32:37.513Z,69.93
2022-11-17T17:37:39.710Z,70.02
2022-11-17T17:42:41.990Z,70.27
2022-11-17T17:47:44.140Z,70.55
2022-11-17T17:52:46.335Z,70.58
2022-11-17T17:57:48.474Z,70.75
2022-11-17T18:02:50.793Z,70.77
2022-11-17T18:07:53.182Z,71.28
2022-11-17T18:12:55.398Z,71.04
2022-11-17T18:17:57.584Z,71.17
2022-11-17T18:22:59.828Z,71.49
2022-11-17T18:28:02.371Z,71.68
2022-11-17T18:33:04.768Z,71.53
2022-11-17T18:38:07.105Z,71.59
2022-11-17T18:43:09.353Z,71.56
2022-11-17T18:48:13.701Z,71.55
2022-11-17T18:53:15.913Z,71.65
2022-11-17T18:58:18.058Z,71.62
2022-11-17T19:03:20.266Z,71.87
2022-11-17T19:08:23.109Z,71.74
2022-11-17T19:13:25.888Z,71.33
2022-11-17T19:18:28.062Z,71.48
2022-11-17T19:23:32.648Z,71.60
2022-11-17T19:28:35.519Z,71.52
2022-11-17T19:33:39.210Z,71.55
2022-11-17T19:38:43.286Z,71.63
2022-11-17T19:43:45.803Z,71.72
2022-11-17T19:48:48.191Z,71.99
2022-11-17T19:53:52.562Z,71.98
2022-11-17T19:58:55.848Z,71.77
2022-11-17T20:04:00.331Z,71.96
2022-11-17T20:09:07.150Z,72.10
2022-11-17T20:14:09.572Z,71.89
2022-11-17T20:19:12.436Z,72.06
2022-11-17T20:24:14.574Z,72.24
2022-11-17T20:29:16.987Z,72.20
2022-11-17T20:34:19.862Z,72.03
2022-11-17T20:39:22.127Z,72.19
2022-11-17T20:44:24.335Z,72.27
2022-11-17T20:49:28.391Z,72.46
2022-11-17T20:54:30.659Z,72.60
2022-11-17T20:59:32.799Z,72.45
2022-11-17T21:04:34.975Z,72.44
2022-11-17T21:09:38.026Z,72.80
2022-11-17T21:14:43.265Z,72.74
2022-11-17T21:19:45.326Z,72.85
2022-11-17T21:24:47.563Z,73.01
2022-11-17T21:29:49.846Z,73.06
2022-11-17T21:34:52.023Z,72.94
2022-11-17T21:39:54.149Z,72.61
2022-11-17T21:44:56.235Z,72.77
2022-11-17T21:49:58.342Z,72.77
2022-11-17T21:55:00.410Z,72.79
2022-11-17T22:00:02.544Z,72.64
2022-11-17T22:05:07.121Z,72.83
2022-11-17T22:10:09.613Z,72.62
2022-11-17T22:15:11.969Z,72.52
2022-11-17T22:20:14.153Z,72.63
2022-11-17T22:25:42.938Z,72.43
2022-11-17T22:30:39.169Z,72.51
2022-11-17T22:35:41.336Z,72.28
2022-11-17T22:40:43.797Z,72.23
2022-11-17T22:45:45.942Z,72.21
2022-11-17T22:50:48.221Z,72.16
2022-11-17T22:55:50.430Z,72.35
2022-11-17T23:00:53.347Z,72.47
2022-11-17T23:05:55.507Z,72.59
2022-11-17T23:11:36.005Z,72.51
2022-11-17T23:16:38.310Z,72.55
2022-11-17T23:21:40.931Z,72.24
2022-11-17T23:26:43.241Z,72.18
2022-11-17T23:31:45.420Z,72.25
2022-11-17T23:36:47.785Z,72.28
2022-11-17T23:41:50.003Z,72.14
2022-11-17T23:46:52.292Z,72.28
2022-11-17T23:51:54.492Z,72.46
2022-11-17T23:56:56.679Z,72.52
